CES2 weather

St-Esprit Aerodrome
St-Esprit, Quebec, Canada

Public forecast

Using degrees Celsius for public forecast. Weather courtesy of forecast.io.

Closest aviation weather report (METAR) to St-Esprit Aerodrome

Closest report is Montreal International (Mirabel) Airport, 20.8 nm (38.6 km) SW. Retrieved 2020/08/08 08:00 UTC (28 minutes ago):

CYMX 080800Z 19002KT 25SM SKC 13/12 A3016 RMK SLP214

Closest aviation forecast (TAF) to St-Esprit Aerodrome

Closest forecast is Montreal International (Mirabel) Airport, 20.8 nm (38.6 km) SW. Retrieved 2020/08/08 06:42 UTC (2 hours ago):

TAF TAF CYMX 080538Z 0806/0906 VRB03KT P6SM SKC PROB30 0807/0811 3/4SM BR FM081400 VRB03KT P6SM SCT050 BECMG 0816/0818 22008KT FM090100 24005KT P6SM SCT060 RMK NXT FCST BY 081200Z